Time;durP1;ratioP1;P1;durP2;ratioP2;P2;SDS_P1;SDS_P2;PMS_P1;PMS_P2;Temp;Humidity;BMP_temperature;BMP_pressure;BME280_temperature;BME280_humidity;BME280_pressure;Samples;Min_cycle;Max_cycle;Signal;HPM_P1;HPM_P2
2022/08/14 00:00:43;;;;;;;12.32;8.52;;;28.70;60.10;;;;;;5069013;28;20028;-72
2022/08/14 00:03:39;;;;;;;14.02;9.25;;;28.70;60.10;;;;;;5069106;28;20127;-72
2022/08/14 00:06:05;;;;;;;11.43;8.23;;;28.80;60.10;;;;;;5028967;28;20052;-72
2022/08/14 00:08:31;;;;;;;9.43;7.25;;;28.60;60.10;;;;;;5029125;28;20092;-72
2022/08/14 00:10:57;;;;;;;14.98;8.60;;;28.80;60.10;;;;;;5029237;28;20037;-72
2022/08/14 00:13:27;;;;;;;10.93;8.05;;;28.60;60.00;;;;;;5028946;28;20045;-72
2022/08/14 00:15:55;;;;;;;22.23;8.32;;;28.70;60.00;;;;;;5029092;28;20107;-72
2022/08/14 00:18:23;;;;;;;12.27;8.77;;;28.70;60.00;;;;;;5028838;28;20034;-72
2022/08/14 00:20:50;;;;;;;13.20;8.57;;;28.70;60.20;;;;;;5029219;28;20049;-72
2022/08/14 00:23:17;;;;;;;11.13;8.38;;;28.70;60.20;;;;;;5028911;28;20076;-72
2022/08/14 00:25:54;;;;;;;14.68;8.88;;;28.70;60.20;;;;;;5029042;28;20406;-72
2022/08/14 00:28:25;;;;;;;10.55;7.90;;;28.60;60.20;;;;;;5028412;28;20064;-72
2022/08/14 00:30:56;;;;;;;17.30;8.13;;;28.70;60.20;;;;;;5027744;28;20042;-72
2022/08/14 00:33:24;;;;;;;9.45;8.27;;;28.60;60.10;;;;;;5028877;28;20124;-72
2022/08/14 00:35:52;;;;;;;12.85;8.27;;;28.70;60.10;;;;;;5028776;28;20049;-72
2022/08/14 00:38:18;;;;;;;14.82;8.70;;;28.60;60.10;;;;;;5012588;28;20038;-72
2022/08/14 00:40:45;;;;;;;14.70;8.27;;;28.70;60.10;;;;;;5028788;28;20157;-72
2022/08/14 00:43:11;;;;;;;15.38;8.93;;;28.60;60.30;;;;;;5046676;28;20114;-72
2022/08/14 00:45:37;;;;;;;12.27;8.50;;;28.50;60.30;;;;;;5051210;28;20037;-72
2022/08/14 00:48:03;;;;;;;15.15;9.07;;;28.60;60.30;;;;;;5051304;28;20029;-72
2022/08/14 00:50:30;;;;;;;11.15;8.43;;;28.50;60.30;;;;;;5050949;28;20029;-72
2022/08/14 00:53:01;;;;;;;14.45;9.48;;;28.50;60.30;;;;;;5050083;28;20041;-72
2022/08/14 00:55:29;;;;;;;11.98;9.27;;;28.50;60.30;;;;;;5050168;28;20028;-72
2022/08/14 01:00:43;;;;;;;13.70;8.45;;;28.50;60.30;;;;;;5050354;28;20026;-72
2022/08/14 01:03:09;;;;;;;12.65;8.70;;;28.70;60.30;;;;;;5051028;28;20061;-72
2022/08/14 01:05:35;;;;;;;12.48;9.02;;;28.50;60.30;;;;;;5050809;28;20393;-72
2022/08/14 01:08:01;;;;;;;14.10;10.05;;;28.70;60.20;;;;;;5050891;28;20048;-72
2022/08/14 01:13:22;;;;;;;20.67;9.38;;;28.70;60.20;;;;;;5054675;28;20112;-72
2022/08/14 01:15:52;;;;;;;13.95;9.45;;;28.60;60.10;;;;;;5054759;28;20072;-71
2022/08/14 01:21:07;;;;;;;14.05;8.80;;;28.50;60.20;;;;;;5054546;28;20296;-72
2022/08/14 01:23:35;;;;;;;12.98;9.82;;;28.60;60.20;;;;;;5054634;28;20028;-72
2022/08/14 01:26:02;;;;;;;14.45;10.80;;;28.50;60.30;;;;;;5052500;28;20098;-72
2022/08/14 01:28:30;;;;;;;15.63;9.68;;;28.50;60.30;;;;;;5062186;28;20028;-72
2022/08/14 01:31:00;;;;;;;13.30;9.63;;;28.40;60.40;;;;;;5074383;28;20025;-72
2022/08/14 01:33:28;;;;;;;10.93;7.95;;;28.50;60.40;;;;;;5074418;28;20153;-72
2022/08/14 01:36:01;;;;;;;11.98;8.93;;;28.50;60.30;;;;;;5074328;28;20032;-72
2022/08/14 01:38:33;;;;;;;13.05;8.52;;;28.40;60.40;;;;;;5074461;28;20037;-72
2022/08/14 01:41:05;;;;;;;12.80;9.45;;;28.40;60.40;;;;;;5072296;28;20474;-71
2022/08/14 01:43:37;;;;;;;14.23;8.50;;;28.40;60.40;;;;;;5052730;28;20032;-72
2022/08/14 01:46:05;;;;;;;10.73;8.73;;;28.60;60.40;;;;;;5052828;28;20505;-72
2022/08/14 01:48:31;;;;;;;16.98;9.52;;;28.50;60.40;;;;;;5053877;28;20121;-72
2022/08/14 01:51:01;;;;;;;13.48;9.05;;;28.50;60.40;;;;;;5054311;28;20037;-72
2022/08/14 01:53:28;;;;;;;11.05;8.73;;;28.60;60.40;;;;;;5053942;28;20021;-72
2022/08/14 01:55:57;;;;;;;12.23;9.80;;;28.60;60.40;;;;;;5054002;28;20029;-72
2022/08/14 01:58:26;;;;;;;12.60;8.30;;;28.40;60.40;;;;;;5053892;28;20048;-72
2022/08/14 02:00:57;;;;;;;13.73;8.35;;;28.60;60.40;;;;;;5052845;28;20033;-72
2022/08/14 02:03:27;;;;;;;12.90;8.68;;;28.50;60.30;;;;;;5053508;28;20065;-72
2022/08/14 02:05:57;;;;;;;10.07;7.10;;;28.60;60.30;;;;;;5053708;28;20447;-72
2022/08/14 02:08:29;;;;;;;11.88;8.90;;;28.60;60.30;;;;;;5052438;28;20028;-72
2022/08/14 02:13:46;;;;;;;11.35;9.05;;;28.60;60.30;;;;;;5053619;28;20118;-72
2022/08/14 02:16:15;;;;;;;12.32;8.23;;;28.50;60.30;;;;;;5052272;28;20033;-72
2022/08/14 02:18:42;;;;;;;14.77;9.85;;;28.50;60.40;;;;;;5053981;28;20040;-71
2022/08/14 02:21:11;;;;;;;13.13;8.88;;;28.50;60.40;;;;;;5053399;28;20461;-72
2022/08/14 02:23:38;;;;;;;12.77;8.07;;;28.50;60.40;;;;;;5050314;28;20055;-72
2022/08/14 02:26:35;;;;;;;16.15;10.02;;;28.40;60.50;;;;;;5060720;28;20203;-72
2022/08/14 02:29:13;;;;;;;10.63;8.38;;;28.30;60.50;;;;;;5073421;28;20424;-72
2022/08/14 02:31:46;;;;;;;12.02;8.15;;;28.50;60.50;;;;;;5073208;28;20036;-72
2022/08/14 02:34:17;;;;;;;13.88;9.70;;;28.40;60.50;;;;;;5071915;28;20027;-72
2022/08/14 02:36:44;;;;;;;13.07;9.13;;;28.30;60.40;;;;;;5073253;28;20032;-72
2022/08/14 02:39:13;;;;;;;12.95;7.45;;;28.40;60.50;;;;;;5073310;28;20040;-72
2022/08/14 02:41:40;;;;;;;11.68;9.27;;;28.40;60.40;;;;;;5072922;28;20052;-72
2022/08/14 02:44:09;;;;;;;14.70;11.13;;;28.40;60.40;;;;;;5065462;28;20060;-72
2022/08/14 02:46:36;;;;;;;17.77;8.82;;;28.50;60.40;;;;;;5052889;28;20037;-72
2022/08/14 02:49:05;;;;;;;11.88;7.40;;;28.40;60.40;;;;;;5053038;28;20033;-72
2022/08/14 02:51:32;;;;;;;13.15;8.32;;;28.50;60.40;;;;;;5051804;28;20029;-72
2022/08/14 02:54:00;;;;;;;14.35;8.32;;;28.50;60.40;;;;;;5052748;28;20063;-72
2022/08/14 02:56:26;;;;;;;13.18;7.75;;;28.50;60.40;;;;;;5052738;28;20040;-72
2022/08/14 02:58:55;;;;;;;12.10;9.23;;;28.40;60.40;;;;;;5052737;28;20107;-72
2022/08/14 03:01:23;;;;;;;13.52;9.70;;;28.30;60.40;;;;;;5052855;28;20458;-72
2022/08/14 03:03:50;;;;;;;14.65;9.85;;;28.30;60.40;;;;;;5052612;28;20040;-72
2022/08/14 03:06:22;;;;;;;10.93;9.25;;;28.30;60.40;;;;;;5052769;28;20049;-72
2022/08/14 03:08:49;;;;;;;15.35;9.40;;;28.40;60.40;;;;;;5051344;28;20123;-72
2022/08/14 03:11:15;;;;;;;20.88;9.90;;;28.30;60.40;;;;;;5052699;28;20488;-72
2022/08/14 03:13:47;;;;;;;12.25;8.57;;;28.30;60.40;;;;;;5052281;28;20029;-72
2022/08/14 03:16:15;;;;;;;12.95;9.07;;;28.20;60.60;;;;;;5052494;28;20474;-72
2022/08/14 03:18:43;;;;;;;15.05;10.13;;;28.30;60.60;;;;;;5052253;28;20032;-72
2022/08/14 03:21:18;;;;;;;12.48;9.75;;;28.20;60.60;;;;;;5050433;28;20037;-72
2022/08/14 03:23:46;;;;;;;7.97;6.15;;;28.30;60.60;;;;;;5050977;28;20045;-71
2022/08/14 03:26:14;;;;;;;12.30;9.35;;;28.30;60.60;;;;;;5052266;28;20075;-72
2022/08/14 03:28:43;;;;;;;12.38;9.88;;;28.40;60.60;;;;;;5051998;28;20032;-72
2022/08/14 03:31:10;;;;;;;13.73;9.90;;;28.40;60.60;;;;;;5051977;28;20032;-72
2022/08/14 03:33:39;;;;;;;13.63;9.82;;;28.30;60.60;;;;;;5051788;28;20048;-71
2022/08/14 03:36:12;;;;;;;11.43;9.13;;;28.40;60.60;;;;;;5051780;28;20047;-72
2022/08/14 03:38:41;;;;;;;12.38;9.00;;;28.30;60.60;;;;;;5051789;28;20098;-72
2022/08/14 03:41:13;;;;;;;14.45;9.15;;;28.40;60.60;;;;;;5051865;28;20528;-72
2022/08/14 03:43:43;;;;;;;14.95;9.85;;;28.30;60.50;;;;;;5051814;28;20040;-72
2022/08/14 03:46:12;;;;;;;14.88;9.60;;;28.30;60.50;;;;;;5051902;28;20087;-72
2022/08/14 03:48:40;;;;;;;12.05;8.52;;;28.30;60.50;;;;;;5051785;28;20425;-72
2022/08/14 03:51:07;;;;;;;18.75;9.85;;;28.40;60.50;;;;;;5051850;28;20033;-72
2022/08/14 03:53:39;;;;;;;15.95;9.40;;;28.30;60.50;;;;;;5051640;28;20044;-72
2022/08/14 03:56:06;;;;;;;14.90;9.48;;;28.20;60.50;;;;;;5051564;28;20482;-72
2022/08/14 03:58:33;;;;;;;9.88;7.93;;;28.30;60.50;;;;;;5051895;28;20033;-76
2022/08/14 04:01:01;;;;;;;9.57;8.35;;;28.30;60.20;;;;;;5051647;28;20029;-76
2022/08/14 04:03:27;;;;;;;14.18;9.20;;;28.40;60.20;;;;;;5069087;28;20037;-76
2022/08/14 04:05:53;;;;;;;11.98;9.52;;;28.10;59.00;;;;;;5069037;28;20048;-76
2022/08/14 04:08:20;;;;;;;14.73;9.85;;;28.40;59.10;;;;;;5069216;28;20056;-76
2022/08/14 04:10:46;;;;;;;15.45;10.13;;;28.20;58.90;;;;;;5069222;28;20032;-76
2022/08/14 04:13:16;;;;;;;14.13;9.85;;;28.10;58.70;;;;;;5069380;28;20044;-76
2022/08/14 04:15:47;;;;;;;16.42;10.23;;;28.20;58.60;;;;;;5069048;28;20036;-76
2022/08/14 04:18:13;;;;;;;15.23;10.82;;;28.20;58.40;;;;;;5069170;28;20477;-77
2022/08/14 04:20:41;;;;;;;15.13;10.63;;;28.20;58.40;;;;;;5048996;28;20433;-80
2022/08/14 04:23:08;;;;;;;21.00;11.60;;;28.10;60.50;;;;;;5052546;28;20503;-79
2022/08/14 04:25:36;;;;;;;18.23;11.10;;;28.40;62.10;;;;;;5058752;28;20036;-80
2022/08/14 04:28:08;;;;;;;17.50;11.02;;;28.60;63.80;;;;;;5049100;28;20604;-80
2022/08/14 04:30:38;;;;;;;14.27;10.27;;;28.70;65.00;;;;;;5049441;28;20084;-77
2022/08/14 04:33:07;;;;;;;13.73;10.63;;;28.70;60.40;;;;;;5049048;28;20033;-76
2022/08/14 04:35:37;;;;;;;13.60;10.43;;;28.70;59.90;;;;;;5032235;28;20069;-77
2022/08/14 04:43:38;;;;;;;16.23;10.15;;;28.60;60.10;;;;;;5031291;28;20064;-76
2022/08/14 04:46:07;;;;;;;19.63;10.70;;;28.60;60.30;;;;;;5031974;28;20030;-77
2022/08/14 04:48:33;;;;;;;18.08;10.98;;;28.60;60.30;;;;;;5035612;28;20037;-75
2022/08/14 04:51:00;;;;;;;16.20;11.98;;;28.50;60.30;;;;;;5035393;28;20037;-76
2022/08/14 04:53:29;;;;;;;17.83;11.10;;;28.40;60.60;;;;;;5035270;28;20057;-76
2022/08/14 04:55:55;;;;;;;15.27;10.05;;;28.40;60.70;;;;;;5037504;28;20041;-74
2022/08/14 04:58:27;;;;;;;13.73;9.10;;;28.50;60.70;;;;;;5047500;28;20123;-75
2022/08/14 05:00:56;;;;;;;15.88;10.07;;;28.50;60.60;;;;;;5054959;28;20041;-75
2022/08/14 05:03:25;;;;;;;12.77;10.50;;;28.50;60.10;;;;;;5054791;28;20502;-75
2022/08/14 05:05:55;;;;;;;15.05;10.27;;;28.30;59.00;;;;;;5054619;28;20482;-75
2022/08/14 05:08:22;;;;;;;13.68;10.98;;;28.30;58.60;;;;;;5054658;28;20040;-76
2022/08/14 05:10:51;;;;;;;13.10;6.78;;;28.20;59.20;;;;;;5055123;28;20036;-75
2022/08/14 05:13:18;;;;;;;4.82;2.40;;;28.30;59.70;;;;;;5054458;28;20458;-74
2022/08/14 05:15:45;;;;;;;10.85;7.65;;;28.10;59.20;;;;;;5055803;28;20476;-75
2022/08/14 05:18:14;;;;;;;20.73;7.85;;;28.20;59.80;;;;;;5057813;28;20048;-74
2022/08/14 05:20:47;;;;;;;5.35;4.05;;;28.20;59.90;;;;;;5052869;28;20028;-76
2022/08/14 05:23:17;;;;;;;5.57;3.97;;;28.20;60.70;;;;;;5062370;28;20046;-76
2022/08/14 05:25:45;;;;;;;8.80;6.18;;;28.20;61.30;;;;;;5051260;28;20512;-75
2022/08/14 05:28:20;;;;;;;15.30;7.68;;;28.20;61.20;;;;;;5052303;28;20060;-76
2022/08/14 05:30:58;;;;;;;16.67;8.40;;;28.20;61.40;;;;;;5051715;28;20120;-75
2022/08/14 05:33:27;;;;;;;18.15;8.63;;;28.40;62.00;;;;;;5059303;28;20038;-75
2022/08/14 05:36:00;;;;;;;10.82;7.70;;;28.30;61.90;;;;;;5047637;28;20037;-75
2022/08/14 05:38:34;;;;;;;14.30;7.63;;;28.40;62.40;;;;;;5052331;28;20029;-75
2022/08/14 05:41:02;;;;;;;13.20;8.13;;;28.30;62.60;;;;;;5053445;28;20053;-76
2022/08/14 05:43:29;;;;;;;15.32;10.93;;;28.40;62.50;;;;;;5053383;28;20037;-77
2022/08/14 05:45:57;;;;;;;11.77;8.93;;;28.30;63.30;;;;;;5053445;28;20037;-74
2022/08/14 05:48:24;;;;;;;10.55;6.95;;;28.40;62.60;;;;;;5053466;28;20112;-76
2022/08/14 05:50:53;;;;;;;13.10;7.57;;;28.40;62.40;;;;;;5053360;28;20108;-80
2022/08/14 05:53:21;;;;;;;7.10;4.70;;;28.40;62.50;;;;;;5053385;28;20485;-79
2022/08/14 05:55:48;;;;;;;13.82;9.15;;;28.40;62.10;;;;;;5052057;28;20502;-76
2022/08/14 05:58:14;;;;;;;7.30;5.22;;;28.30;62.80;;;;;;5052510;28;20040;-79
2022/08/14 06:00:42;;;;;;;13.13;6.95;;;28.40;62.20;;;;;;5053295;28;20033;-77
2022/08/14 06:03:13;;;;;;;7.32;4.30;;;28.30;61.30;;;;;;5049740;28;20083;-78
2022/08/14 06:05:40;;;;;;;12.85;10.10;;;28.30;60.90;;;;;;5051069;28;20037;-79
2022/08/14 06:08:27;;;;;;;13.80;9.02;;;28.30;63.60;;;;;;5053261;28;20043;-79
2022/08/14 06:11:01;;;;;;;21.73;10.63;;;28.20;62.00;;;;;;5051817;28;20048;-74
2022/08/14 06:13:28;;;;;;;18.23;11.18;;;28.20;61.10;;;;;;5052070;28;20493;-73
2022/08/14 06:15:54;;;;;;;15.55;10.15;;;28.30;60.60;;;;;;5052066;28;20025;-74
2022/08/14 06:18:20;;;;;;;16.10;10.18;;;28.20;61.30;;;;;;5073121;28;20150;-75
2022/08/14 06:20:46;;;;;;;12.13;9.23;;;28.20;61.30;;;;;;5055885;28;20071;-75
2022/08/14 06:23:12;;;;;;;11.77;9.52;;;28.20;61.10;;;;;;5053535;28;20037;-75
2022/08/14 06:25:38;;;;;;;12.98;9.52;;;28.20;61.00;;;;;;5053696;28;20060;-75
2022/08/14 06:28:05;;;;;;;12.38;8.98;;;28.10;60.90;;;;;;5053780;28;20048;-75
2022/08/14 06:30:33;;;;;;;14.43;9.40;;;28.30;60.90;;;;;;5053417;28;20422;-75
2022/08/14 06:32:59;;;;;;;15.90;10.45;;;28.20;60.60;;;;;;5053292;28;20052;-74
2022/08/14 06:35:26;;;;;;;17.40;8.77;;;28.20;60.60;;;;;;5053549;28;20041;-73
2022/08/14 06:37:55;;;;;;;12.35;9.27;;;28.20;60.70;;;;;;5053451;28;20061;-74
2022/08/14 06:40:23;;;;;;;14.18;10.85;;;28.30;60.60;;;;;;5053436;28;20040;-74
2022/08/14 06:42:49;;;;;;;17.52;11.02;;;28.20;60.60;;;;;;5053275;28;20037;-75
2022/08/14 06:45:16;;;;;;;13.77;9.05;;;28.30;60.70;;;;;;5053541;28;20040;-76
2022/08/14 06:47:43;;;;;;;14.23;9.80;;;28.30;60.70;;;;;;5053082;28;20111;-75
2022/08/14 06:50:13;;;;;;;16.10;10.57;;;28.20;60.60;;;;;;5053484;28;20033;-75
2022/08/14 06:52:41;;;;;;;14.18;10.52;;;28.30;60.40;;;;;;5053528;28;20033;-75
2022/08/14 06:55:09;;;;;;;20.00;10.68;;;28.30;60.10;;;;;;5052978;28;20071;-76
2022/08/14 06:57:39;;;;;;;19.05;10.82;;;28.30;59.60;;;;;;5051901;28;20025;-74
2022/08/14 07:00:08;;;;;;;13.27;9.90;;;28.40;59.90;;;;;;5051312;28;20382;-75
2022/08/14 07:08:04;;;;;;;14.55;10.48;;;28.40;60.10;;;;;;5052452;28;20028;-73
2022/08/14 07:10:31;;;;;;;14.13;9.25;;;28.30;60.10;;;;;;5050822;28;20033;-74
2022/08/14 07:12:58;;;;;;;15.70;11.68;;;28.30;60.00;;;;;;5058300;28;20119;-73
2022/08/14 07:15:24;;;;;;;13.05;9.60;;;28.30;59.90;;;;;;5053123;28;20039;-75
2022/08/14 07:17:50;;;;;;;11.20;8.07;;;28.40;59.80;;;;;;5052497;28;20036;-74
2022/08/14 07:20:19;;;;;;;11.65;8.40;;;28.30;59.90;;;;;;5052600;28;20095;-76
2022/08/14 07:22:49;;;;;;;14.52;8.13;;;28.20;59.80;;;;;;5051571;28;20078;-74
2022/08/14 07:25:15;;;;;;;14.07;9.63;;;28.20;59.90;;;;;;5051182;28;20052;-73
2022/08/14 07:27:41;;;;;;;15.73;10.93;;;28.30;60.20;;;;;;5051930;28;20032;-72
2022/08/14 07:30:09;;;;;;;18.02;11.82;;;28.10;59.90;;;;;;5052261;28;20117;-71
2022/08/14 07:32:35;;;;;;;14.90;10.20;;;28.20;59.80;;;;;;5049588;28;20445;-71
2022/08/14 07:35:01;;;;;;;12.82;10.20;;;28.30;60.40;;;;;;5049797;28;20045;-71
2022/08/14 07:37:27;;;;;;;16.08;9.02;;;28.20;60.30;;;;;;5049413;28;20049;-71
2022/08/14 07:39:53;;;;;;;20.27;10.13;;;28.20;60.30;;;;;;5054685;28;20040;-71
2022/08/14 07:42:19;;;;;;;10.25;8.20;;;28.20;60.30;;;;;;5069361;28;20052;-71
2022/08/14 07:44:45;;;;;;;16.58;9.90;;;28.30;60.40;;;;;;5055578;28;20042;-71
2022/08/14 07:47:11;;;;;;;18.27;9.68;;;28.30;60.40;;;;;;5046331;28;20064;-72
2022/08/14 07:49:37;;;;;;;19.30;11.18;;;28.20;60.50;;;;;;5029731;28;20398;-71
2022/08/14 07:52:03;;;;;;;14.38;10.32;;;28.30;60.40;;;;;;5029324;28;20049;-71
2022/08/14 07:54:30;;;;;;;16.98;8.23;;;28.30;60.60;;;;;;5029585;28;20052;-73
2022/08/14 07:57:00;;;;;;;12.77;9.07;;;28.30;60.50;;;;;;5047109;28;20098;-71
2022/08/14 07:59:27;;;;;;;13.13;9.40;;;28.30;60.70;;;;;;5049428;28;20029;-71
2022/08/14 08:01:53;;;;;;;13.02;9.82;;;28.40;60.70;;;;;;5049089;28;20098;-71
2022/08/14 08:04:27;;;;;;;12.07;8.68;;;28.40;60.60;;;;;;5051088;28;20033;-71
2022/08/14 08:06:54;;;;;;;12.15;8.10;;;28.30;60.50;;;;;;5051352;28;20037;-72
2022/08/14 08:09:24;;;;;;;12.77;9.57;;;28.30;60.40;;;;;;5048881;28;20033;-71
2022/08/14 08:11:52;;;;;;;13.45;9.65;;;28.40;60.40;;;;;;5058270;28;20033;-71
2022/08/14 08:14:19;;;;;;;10.05;6.53;;;28.30;60.40;;;;;;5048983;28;20690;-71
2022/08/14 08:16:48;;;;;;;10.68;8.02;;;28.30;60.50;;;;;;5048631;28;20033;-71
2022/08/14 08:19:17;;;;;;;16.00;9.82;;;28.40;60.60;;;;;;5048248;28;20044;-70
2022/08/14 08:21:44;;;;;;;14.35;9.93;;;28.40;60.50;;;;;;5047974;28;20036;-70
2022/08/14 08:24:11;;;;;;;10.90;5.32;;;28.50;60.40;;;;;;5048040;28;20482;-70
2022/08/14 08:26:37;;;;;;;19.58;10.40;;;28.40;60.20;;;;;;5048619;28;20037;-70
2022/08/14 08:29:03;;;;;;;17.25;9.27;;;28.40;60.20;;;;;;5048739;28;20039;-69
2022/08/14 08:31:29;;;;;;;14.43;9.85;;;28.40;60.10;;;;;;5048671;28;20044;-69
2022/08/14 08:33:56;;;;;;;13.48;10.20;;;28.30;60.20;;;;;;5048621;28;20095;-69
2022/08/14 08:36:22;;;;;;;16.33;9.88;;;28.30;60.20;;;;;;5048514;28;20076;-72
2022/08/14 08:38:49;;;;;;;16.90;10.13;;;28.20;60.10;;;;;;5048598;28;20140;-72
2022/08/14 08:41:15;;;;;;;18.60;10.45;;;28.40;60.10;;;;;;5048805;28;20052;-72
2022/08/14 08:43:41;;;;;;;11.55;10.07;;;28.30;60.00;;;;;;5049210;28;20466;-70
2022/08/14 08:46:10;;;;;;;13.77;8.75;;;28.20;60.30;;;;;;5051026;28;20039;-69
2022/08/14 08:48:51;;;;;;;13.88;10.38;;;28.30;60.40;;;;;;5050959;28;20033;-69
2022/08/14 08:51:40;;;;;;;17.08;9.50;;;28.30;60.30;;;;;;5050902;28;20041;-70
2022/08/14 08:54:06;;;;;;;13.25;10.13;;;28.50;63.70;;;;;;5052055;28;20731;-70
2022/08/14 08:56:51;;;;;;;16.38;11.23;;;28.50;64.50;;;;;;5061873;28;20450;-71
2022/08/14 08:59:25;;;;;;;16.73;10.05;;;28.80;62.50;;;;;;5052814;28;20461;-71
2022/08/14 09:01:57;;;;;;;10.73;5.80;;;28.70;60.80;;;;;;5049721;28;20025;-72
2022/08/14 09:04:28;;;;;;;18.60;11.50;;;28.60;60.70;;;;;;5048237;28;20029;-71
2022/08/14 09:06:55;;;;;;;14.63;10.38;;;28.50;60.70;;;;;;5052147;28;20043;-72
2022/08/14 09:09:28;;;;;;;14.20;10.90;;;28.70;61.00;;;;;;5047788;28;20397;-74
2022/08/14 09:11:56;;;;;;;15.00;9.85;;;28.60;61.10;;;;;;5048607;28;20048;-72
2022/08/14 09:14:24;;;;;;;11.55;7.85;;;28.60;61.10;;;;;;5048034;28;20025;-72
2022/08/14 09:16:50;;;;;;;11.27;6.97;;;28.50;61.20;;;;;;5051163;28;20044;-70
2022/08/14 09:19:17;;;;;;;1.73;1.63;;;28.50;61.00;;;;;;5050903;28;20036;-73
2022/08/14 09:21:45;;;;;;;9.57;5.47;;;28.40;61.40;;;;;;5055679;28;20122;-73
2022/08/14 09:24:12;;;;;;;8.48;5.90;;;28.60;62.80;;;;;;5045651;28;20040;-73
2022/08/14 09:26:40;;;;;;;16.42;9.73;;;28.60;63.00;;;;;;5050628;28;20102;-72
2022/08/14 09:29:09;;;;;;;17.38;7.05;;;28.60;62.40;;;;;;5049842;28;20021;-70
2022/08/14 09:31:39;;;;;;;19.92;9.45;;;28.60;62.20;;;;;;5052256;28;20111;-72
2022/08/14 09:34:20;;;;;;;12.95;8.00;;;28.60;63.00;;;;;;5073722;28;20028;-73
2022/08/14 09:36:48;;;;;;;13.98;7.55;;;28.70;65.10;;;;;;5071344;28;20044;-71
2022/08/14 09:39:56;;;;;;;17.55;10.48;;;28.70;63.90;;;;;;5052218;28;20036;-69
2022/08/14 09:42:49;;;;;;;15.32;9.88;;;28.80;62.20;;;;;;5052858;28;20048;-73
2022/08/14 09:45:16;;;;;;;15.63;9.75;;;28.70;60.90;;;;;;5058575;28;20409;-69
2022/08/14 09:47:50;;;;;;;14.07;9.80;;;28.80;61.00;;;;;;5053086;28;20035;-72
2022/08/14 09:50:44;;;;;;;18.98;8.70;;;28.80;61.00;;;;;;5053750;28;20068;-71
2022/08/14 09:53:14;;;;;;;13.20;9.07;;;28.80;61.10;;;;;;5053103;28;20033;-69
2022/08/14 09:55:40;;;;;;;11.02;5.15;;;28.70;60.60;;;;;;5051009;28;20035;-72
2022/08/14 09:58:19;;;;;;;8.38;5.82;;;28.90;63.00;;;;;;5053125;28;20108;-73
2022/08/14 10:00:56;;;;;;;4.05;3.47;;;29.40;68.60;;;;;;5052848;28;20083;-72
2022/08/14 10:03:32;;;;;;;18.23;10.27;;;29.50;69.00;;;;;;5050632;28;20111;-71
2022/08/14 10:06:10;;;;;;;11.88;9.10;;;29.70;67.50;;;;;;5049643;28;20477;-71
2022/08/14 10:08:49;;;;;;;13.68;10.68;;;29.40;61.30;;;;;;5056385;28;20048;-70
2022/08/14 10:11:28;;;;;;;12.07;9.02;;;29.40;60.10;;;;;;5049592;28;20119;-70
2022/08/14 10:14:09;;;;;;;12.15;9.27;;;29.60;60.50;;;;;;5051815;28;20366;-68
2022/08/14 10:16:41;;;;;;;13.27;9.40;;;29.50;61.10;;;;;;5049732;28;20028;-70
2022/08/14 10:19:11;;;;;;;16.47;10.70;;;29.50;61.00;;;;;;5053150;28;20354;-70
2022/08/14 10:21:39;;;;;;;15.27;9.98;;;29.70;58.80;;;;;;5052431;28;20090;-71
2022/08/14 10:24:08;;;;;;;13.30;10.63;;;29.60;58.10;;;;;;5053594;28;20033;-70
2022/08/14 10:26:35;;;;;;;11.57;9.88;;;29.60;60.00;;;;;;5047390;28;20475;-69
2022/08/14 10:29:10;;;;;;;12.93;9.15;;;29.60;57.70;;;;;;5050281;28;20085;-71
2022/08/14 10:31:37;;;;;;;16.45;9.35;;;29.60;60.80;;;;;;5051568;28;20370;-71
2022/08/14 10:34:09;;;;;;;14.43;9.20;;;29.60;60.10;;;;;;5052565;28;20044;-71
2022/08/14 10:36:40;;;;;;;15.07;9.10;;;29.40;60.00;;;;;;5052186;28;20086;-70
2022/08/14 10:39:17;;;;;;;19.88;9.70;;;29.40;59.90;;;;;;5049081;28;20420;-69
2022/08/14 10:41:44;;;;;;;15.20;9.25;;;29.40;59.90;;;;;;5052398;28;20056;-69
2022/08/14 10:44:15;;;;;;;13.07;9.25;;;29.30;59.80;;;;;;5048504;28;20119;-70
2022/08/14 10:46:52;;;;;;;16.38;9.40;;;29.50;59.80;;;;;;5051763;28;20056;-69
2022/08/14 10:49:25;;;;;;;17.83;9.63;;;29.30;59.60;;;;;;5053835;28;20029;-69
2022/08/14 10:52:08;;;;;;;12.75;8.30;;;29.30;59.70;;;;;;5071684;28;20082;-70
2022/08/14 10:54:40;;;;;;;13.70;9.32;;;29.30;59.80;;;;;;5071727;28;20024;-70
2022/08/14 10:57:14;;;;;;;19.90;11.32;;;29.30;59.80;;;;;;5072898;28;20100;-70
2022/08/14 10:59:50;;;;;;;18.27;9.52;;;29.20;60.00;;;;;;5066200;28;20025;-70
2022/08/14 11:02:38;;;;;;;19.75;9.10;;;29.20;60.00;;;;;;5051893;28;20063;-70
2022/08/14 11:05:18;;;;;;;14.50;9.38;;;29.30;60.00;;;;;;5060513;28;20036;-70
2022/08/14 11:07:52;;;;;;;14.68;9.77;;;29.30;60.00;;;;;;5070392;28;20041;-70
2022/08/14 11:10:19;;;;;;;16.20;8.93;;;29.30;59.40;;;;;;5061920;28;20623;-71
2022/08/14 11:12:50;;;;;;;15.52;8.43;;;29.20;60.00;;;;;;5052669;28;20041;-71
2022/08/14 11:15:26;;;;;;;16.35;8.70;;;29.20;60.00;;;;;;5052643;28;20033;-70
2022/08/14 11:17:53;;;;;;;12.60;8.02;;;29.20;60.10;;;;;;5052021;28;20041;-70
2022/08/14 11:20:22;;;;;;;11.90;8.55;;;29.20;60.30;;;;;;5053439;28;20035;-71
2022/08/14 11:22:53;;;;;;;13.07;8.75;;;29.10;60.30;;;;;;5052731;28;20029;-71
2022/08/14 11:25:22;;;;;;;15.30;8.18;;;29.10;60.10;;;;;;5052691;28;20036;-70
2022/08/14 11:27:53;;;;;;;17.60;9.25;;;29.20;60.50;;;;;;5052282;28;20120;-70
2022/08/14 11:30:22;;;;;;;12.20;8.25;;;29.10;60.20;;;;;;5057963;28;20029;-71
2022/08/14 11:32:50;;;;;;;15.68;9.00;;;29.10;60.30;;;;;;5052512;28;20123;-70
2022/08/14 11:35:21;;;;;;;15.25;8.57;;;29.20;60.20;;;;;;5037355;28;20029;-70
2022/08/14 11:37:53;;;;;;;15.47;8.93;;;29.00;60.40;;;;;;5046487;28;20041;-70
2022/08/14 11:40:23;;;;;;;10.02;8.52;;;29.10;60.40;;;;;;5056450;28;20045;-71
2022/08/14 11:42:54;;;;;;;13.05;7.95;;;29.00;60.60;;;;;;5066580;28;20048;-71
2022/08/14 11:45:22;;;;;;;18.27;7.93;;;29.00;60.70;;;;;;5071197;28;20032;-72
2022/08/14 11:47:48;;;;;;;12.98;7.47;;;29.00;60.90;;;;;;5063567;28;20032;-71
2022/08/14 11:50:27;;;;;;;11.23;7.78;;;29.00;60.90;;;;;;5051846;28;20033;-70
2022/08/14 11:52:55;;;;;;;18.08;8.55;;;29.00;61.00;;;;;;5052075;28;20361;-71
2022/08/14 11:55:25;;;;;;;14.90;8.35;;;28.90;60.40;;;;;;5068331;28;20036;-71
2022/08/14 11:58:03;;;;;;;19.00;8.35;;;28.90;60.40;;;;;;5071837;28;20028;-71
2022/08/14 12:00:30;;;;;;;19.08;9.60;;;28.90;60.50;;;;;;5056947;28;20100;-71
2022/08/14 12:02:58;;;;;;;11.70;7.68;;;28.90;60.60;;;;;;5065908;28;20048;-70
2022/08/14 12:05:38;;;;;;;16.55;7.78;;;28.90;60.60;;;;;;5060045;28;20113;-71
2022/08/14 12:08:06;;;;;;;14.52;8.13;;;28.90;60.60;;;;;;5052687;28;20037;-71
2022/08/14 12:10:36;;;;;;;16.23;8.27;;;28.80;60.60;;;;;;5055222;28;20024;-71
2022/08/14 12:13:17;;;;;;;7.15;3.45;;;28.90;60.60;;;;;;5071778;28;20037;-71
2022/08/14 12:15:57;;;;;;;7.55;4.10;;;28.80;60.70;;;;;;5066205;28;20116;-72
2022/08/14 12:18:34;;;;;;;5.25;3.50;;;28.80;60.60;;;;;;5052733;28;20037;-72
2022/08/14 12:21:30;;;;;;;3.05;2.75;;;28.70;60.70;;;;;;5052779;28;20474;-71
2022/08/14 12:24:07;;;;;;;8.30;3.92;;;28.90;60.60;;;;;;5025664;28;20069;-71
2022/08/14 12:26:35;;;;;;;5.95;4.20;;;28.80;60.50;;;;;;5028642;28;20402;-72
2022/08/14 12:29:11;;;;;;;12.27;4.38;;;28.70;60.30;;;;;;5026695;28;20056;-72
2022/08/14 12:31:40;;;;;;;9.23;4.45;;;28.90;60.40;;;;;;5009015;28;20037;-71
2022/08/14 12:34:10;;;;;;;8.98;4.28;;;28.70;60.40;;;;;;5008901;28;20062;-72
2022/08/14 12:36:36;;;;;;;6.70;4.72;;;28.90;60.40;;;;;;5009278;28;20463;-71
2022/08/14 12:39:16;;;;;;;13.40;5.68;;;28.80;60.40;;;;;;4966856;28;20040;-72
2022/08/14 12:41:55;;;;;;;10.23;5.47;;;28.90;60.40;;;;;;4958711;28;20137;-72
2022/08/14 12:44:36;;;;;;;5.80;4.30;;;28.80;60.30;;;;;;4970146;28;20448;-71
2022/08/14 12:47:09;;;;;;;7.97;4.40;;;28.90;60.40;;;;;;4970477;28;20046;-72
2022/08/14 12:49:36;;;;;;;7.47;4.85;;;28.90;60.40;;;;;;4937920;28;20081;-72
2022/08/14 12:52:03;;;;;;;10.68;4.93;;;28.90;60.40;;;;;;4969855;28;20050;-72
2022/08/14 12:54:29;;;;;;;10.73;5.22;;;28.90;60.30;;;;;;4969840;28;20484;-71
2022/08/14 12:57:06;;;;;;;8.90;5.18;;;28.90;60.20;;;;;;4969376;28;20544;-71
2022/08/14 12:59:34;;;;;;;6.88;4.72;;;28.80;59.70;;;;;;4979275;28;20033;-72
2022/08/14 13:02:00;;;;;;;9.40;5.07;;;28.90;60.30;;;;;;5029002;28;20095;-72
2022/08/14 13:04:30;;;;;;;7.78;5.50;;;28.90;60.20;;;;;;5031039;28;20530;-72
2022/08/14 13:07:07;;;;;;;7.32;5.00;;;28.90;60.50;;;;;;5032165;28;20451;-72
2022/08/14 13:09:34;;;;;;;9.35;5.22;;;28.90;60.50;;;;;;5049237;28;20528;-72
2022/08/14 13:12:04;;;;;;;7.45;4.82;;;28.90;60.10;;;;;;5032579;28;20462;-71